Renner Field-Goodland Municipal Airport
KGLD : now visible

Airfield :











YOU CAN JOIN US ON...

 
LOGIN :

Register | Disclaimer

   EN    FR    IT 

 









Legend :    VFR   Marginal VFR   IFR   Intensive IFR   Very Intensive IFR
Visi :
Ceiling :
>= 8 km
>= 3000ft
5 to 8 km
1000 to 3000 ft
1500m to 5 km
500 to 1000 ft
800 to 1500m
200 to 500 ft
< 800m
< 200 ft
Symbols :   Thunderstorms  Fog  Heavy snow  Heavy precipitations  Wind > 20 kt






- Airport Elevation : 3656 ft


KGLD - Renner Field-Goodland Municipal

CURRENT METAR :
  • 250753Z AUTO 21011KT 10SM CLR 01/M07 A2994 RMK AO2 SLP139 T00061067

EXPIRED METARs :
  • 250653Z AUTO 20013KT 10SM CLR 01/M07 A2995 RMK AO2 SLP145 T00111067 401221078
  • 250553Z AUTO 19010KT 10SM CLR 01/M07 A2996 RMK AO2 SLP151 T00111072 10033 21022 55001

TAF KGLD
Valid from the 25 at 06:00 until the 26 at 06:00 UTC


250520Z 2506/2606 19011KT P6SM SKC
FM251100 23007KT P6SM BKN090
FM251700 34012G18KT P6SM SCT200
FM260100 31007KT P6SM SKC



MET'MAP, your aeronautical weather chart ! - Copyright ORBIFLY December 2007 - Disclaimer

ORBIFLY MET'MAP TEAM :

Programming & Development : Alexandra Zaïnal
Concept & original design : Baudouin d'Aumeries
Assistance for programming : Marc-Olivier Méhu
Technical & hardware support : Manuel Goepfert

Contact : metmap@orbifly.com




SOURCES & CREDITS :

   NOAA       Earth
Advisory